sensor_id;sensor_type;location;lat;lon;timestamp;pressure;altitude;pressure_sealevel;temperature;humidity
66479;BME280;53294;47.912;13.526;2023-04-01T00:01:15;94956.53;;;8.46;59.96
66479;BME280;53294;47.912;13.526;2023-04-01T00:03:43;94949.31;;;8.55;59.90
66479;BME280;53294;47.912;13.526;2023-04-01T00:06:15;94947.28;;;8.52;58.69
66479;BME280;53294;47.912;13.526;2023-04-01T00:08:42;94942.03;;;8.47;58.18
66479;BME280;53294;47.912;13.526;2023-04-01T00:11:09;94939.88;;;8.49;59.13
66479;BME280;53294;47.912;13.526;2023-04-01T00:13:36;94939.38;;;8.47;59.30
66479;BME280;53294;47.912;13.526;2023-04-01T00:16:03;94943.47;;;8.53;59.17
66479;BME280;53294;47.912;13.526;2023-04-01T00:18:45;94948.03;;;8.52;59.65
66479;BME280;53294;47.912;13.526;2023-04-01T00:21:14;94940.66;;;8.58;58.56
66479;BME280;53294;47.912;13.526;2023-04-01T00:23:41;94946.16;;;8.53;58.62
66479;BME280;53294;47.912;13.526;2023-04-01T00:26:08;94954.06;;;8.58;59.14
66479;BME280;53294;47.912;13.526;2023-04-01T00:28:34;94950.41;;;8.54;58.41
66479;BME280;53294;47.912;13.526;2023-04-01T00:31:06;94951.50;;;8.53;58.80
66479;BME280;53294;47.912;13.526;2023-04-01T00:33:33;94953.41;;;8.52;59.00
66479;BME280;53294;47.912;13.526;2023-04-01T00:36:15;94947.88;;;8.49;58.97
66479;BME280;53294;47.912;13.526;2023-04-01T00:38:42;94947.88;;;8.49;59.18
66479;BME280;53294;47.912;13.526;2023-04-01T00:41:10;94943.97;;;8.55;59.44
66479;BME280;53294;47.912;13.526;2023-04-01T00:43:47;94946.31;;;8.48;59.02
66479;BME280;53294;47.912;13.526;2023-04-01T00:46:14;94957.78;;;8.48;59.88
66479;BME280;53294;47.912;13.526;2023-04-01T00:48:45;94953.88;;;8.46;61.36
66479;BME280;53294;47.912;13.526;2023-04-01T00:51:27;94946.94;;;8.44;61.20
66479;BME280;53294;47.912;13.526;2023-04-01T00:53:58;94953.50;;;8.38;61.83
66479;BME280;53294;47.912;13.526;2023-04-01T00:56:37;94943.41;;;8.35;62.35
66479;BME280;53294;47.912;13.526;2023-04-01T00:59:10;94948.41;;;8.28;61.92
66479;BME280;53294;47.912;13.526;2023-04-01T01:01:38;94950.00;;;8.29;62.81
66479;BME280;53294;47.912;13.526;2023-04-01T01:04:06;94941.06;;;7.94;64.58
66479;BME280;53294;47.912;13.526;2023-04-01T01:06:37;94956.38;;;8.02;65.32
66479;BME280;53294;47.912;13.526;2023-04-01T01:12:00;94950.22;;;7.70;65.34
66479;BME280;53294;47.912;13.526;2023-04-01T01:17:26;94942.88;;;7.76;64.32
66479;BME280;53294;47.912;13.526;2023-04-01T01:23:21;94948.69;;;7.78;64.72
66479;BME280;53294;47.912;13.526;2023-04-01T01:36:56;94934.72;;;7.81;64.19
66479;BME280;53294;47.912;13.526;2023-04-01T01:39:26;94940.53;;;7.83;65.02
66479;BME280;53294;47.912;13.526;2023-04-01T01:42:03;94953.91;;;7.83;65.68
66479;BME280;53294;47.912;13.526;2023-04-01T01:44:31;94961.13;;;7.82;65.55
66479;BME280;53294;47.912;13.526;2023-04-01T01:47:00;94957.06;;;7.85;65.86
66479;BME280;53294;47.912;13.526;2023-04-01T01:49:27;94955.94;;;7.77;66.85
66479;BME280;53294;47.912;13.526;2023-04-01T01:51:57;94960.13;;;7.69;67.45
66479;BME280;53294;47.912;13.526;2023-04-01T01:54:23;94953.44;;;7.58;68.56
66479;BME280;53294;47.912;13.526;2023-04-01T01:56:54;94968.84;;;7.52;69.28
66479;BME280;53294;47.912;13.526;2023-04-01T01:59:24;94968.91;;;7.39;69.38
66479;BME280;53294;47.912;13.526;2023-04-01T02:01:53;94959.06;;;7.48;69.26
66479;BME280;53294;47.912;13.526;2023-04-01T02:04:22;94954.47;;;7.40;69.90
66479;BME280;53294;47.912;13.526;2023-04-01T02:06:55;94952.44;;;7.45;69.78
66479;BME280;53294;47.912;13.526;2023-04-01T02:09:23;94956.22;;;7.44;69.29
66479;BME280;53294;47.912;13.526;2023-04-01T02:12:12;94959.50;;;7.41;69.79
66479;BME280;53294;47.912;13.526;2023-04-01T02:14:58;94965.19;;;7.48;69.83
66479;BME280;53294;47.912;13.526;2023-04-01T02:17:29;94964.78;;;7.32;70.55
66479;BME280;53294;47.912;13.526;2023-04-01T02:20:03;94956.97;;;7.22;70.55
66479;BME280;53294;47.912;13.526;2023-04-01T02:22:35;94965.59;;;7.19;70.89
66479;BME280;53294;47.912;13.526;2023-04-01T02:25:09;94957.66;;;7.28;70.97
66479;BME280;53294;47.912;13.526;2023-04-01T02:27:38;94961.25;;;7.23;71.57
66479;BME280;53294;47.912;13.526;2023-04-01T02:30:05;94960.16;;;7.24;71.22
66479;BME280;53294;47.912;13.526;2023-04-01T02:32:33;94949.56;;;7.19;70.81
66479;BME280;53294;47.912;13.526;2023-04-01T02:35:15;94954.63;;;6.98;72.36
66479;BME280;53294;47.912;13.526;2023-04-01T02:37:43;94955.88;;;7.00;71.82
66479;BME280;53294;47.912;13.526;2023-04-01T02:40:12;94961.81;;;6.97;71.96
66479;BME280;53294;47.912;13.526;2023-04-01T02:42:40;94963.59;;;7.02;72.01
66479;BME280;53294;47.912;13.526;2023-04-01T02:45:07;94971.16;;;6.86;72.48
66479;BME280;53294;47.912;13.526;2023-04-01T02:47:34;94970.94;;;6.96;72.48
66479;BME280;53294;47.912;13.526;2023-04-01T02:50:01;94969.34;;;6.95;72.87
66479;BME280;53294;47.912;13.526;2023-04-01T02:52:29;94975.88;;;6.89;73.06
66479;BME280;53294;47.912;13.526;2023-04-01T02:54:56;94962.75;;;6.79;73.87
66479;BME280;53294;47.912;13.526;2023-04-01T02:57:24;94971.84;;;6.92;73.62
66479;BME280;53294;47.912;13.526;2023-04-01T02:59:51;94981.94;;;6.81;73.54
66479;BME280;53294;47.912;13.526;2023-04-01T03:02:18;94978.16;;;6.82;73.85
66479;BME280;53294;47.912;13.526;2023-04-01T03:04:44;94986.63;;;6.61;74.99
66479;BME280;53294;47.912;13.526;2023-04-01T03:07:12;94981.19;;;6.67;75.97
66479;BME280;53294;47.912;13.526;2023-04-01T03:09:39;94974.97;;;6.57;76.26
66479;BME280;53294;47.912;13.526;2023-04-01T03:12:06;94968.59;;;6.81;75.45
66479;BME280;53294;47.912;13.526;2023-04-01T03:14:33;94977.03;;;6.74;75.04
66479;BME280;53294;47.912;13.526;2023-04-01T03:16:59;94977.72;;;6.66;75.14
66479;BME280;53294;47.912;13.526;2023-04-01T03:19:27;94984.72;;;6.76;75.66
66479;BME280;53294;47.912;13.526;2023-04-01T03:21:53;94988.03;;;6.95;74.49
66479;BME280;53294;47.912;13.526;2023-04-01T03:24:20;94992.91;;;6.93;75.07
66479;BME280;53294;47.912;13.526;2023-04-01T03:26:47;94989.44;;;6.79;75.73
66479;BME280;53294;47.912;13.526;2023-04-01T03:29:14;95001.53;;;6.62;76.50
66479;BME280;53294;47.912;13.526;2023-04-01T03:31:42;94998.44;;;6.83;75.77
66479;BME280;53294;47.912;13.526;2023-04-01T03:34:09;95009.56;;;6.62;76.64
66479;BME280;53294;47.912;13.526;2023-04-01T03:36:36;95009.53;;;6.76;76.29
66479;BME280;53294;47.912;13.526;2023-04-01T03:39:03;95007.66;;;6.63;77.38
66479;BME280;53294;47.912;13.526;2023-04-01T03:41:30;95005.81;;;6.63;77.62
66479;BME280;53294;47.912;13.526;2023-04-01T03:43:57;95009.25;;;6.50;78.02
66479;BME280;53294;47.912;13.526;2023-04-01T03:46:23;95004.34;;;6.29;79.22
66479;BME280;53294;47.912;13.526;2023-04-01T03:48:50;95015.47;;;6.32;79.07
66479;BME280;53294;47.912;13.526;2023-04-01T03:51:17;95020.63;;;6.28;79.82
66479;BME280;53294;47.912;13.526;2023-04-01T03:53:44;95011.91;;;6.22;79.46
66479;BME280;53294;47.912;13.526;2023-04-01T03:56:11;95025.56;;;6.21;79.92
66479;BME280;53294;47.912;13.526;2023-04-01T03:58:38;95020.03;;;6.17;79.68
66479;BME280;53294;47.912;13.526;2023-04-01T04:01:20;95018.13;;;6.04;79.09
66479;BME280;53294;47.912;13.526;2023-04-01T04:03:48;95015.84;;;5.97;81.49
66479;BME280;53294;47.912;13.526;2023-04-01T04:06:18;95011.31;;;6.11;79.83
66479;BME280;53294;47.912;13.526;2023-04-01T04:08:45;95015.06;;;6.24;79.12
66479;BME280;53294;47.912;13.526;2023-04-01T04:11:12;95016.66;;;6.25;78.46
66479;BME280;53294;47.912;13.526;2023-04-01T04:13:39;95008.47;;;6.08;80.08
66479;BME280;53294;47.912;13.526;2023-04-01T04:16:06;95021.69;;;6.13;78.85
66479;BME280;53294;47.912;13.526;2023-04-01T04:18:34;95008.25;;;6.18;78.65
66479;BME280;53294;47.912;13.526;2023-04-01T04:21:00;95018.84;;;6.23;79.03
66479;BME280;53294;47.912;13.526;2023-04-01T04:23:27;95015.47;;;6.18;78.81
66479;BME280;53294;47.912;13.526;2023-04-01T04:26:01;95022.59;;;6.22;78.24
66479;BME280;53294;47.912;13.526;2023-04-01T04:28:30;95029.50;;;6.23;78.54
66479;BME280;53294;47.912;13.526;2023-04-01T04:30:57;95027.81;;;6.27;76.71
66479;BME280;53294;47.912;13.526;2023-04-01T04:33:24;95033.75;;;6.24;78.33
66479;BME280;53294;47.912;13.526;2023-04-01T04:35:55;95031.28;;;6.28;78.94
66479;BME280;53294;47.912;13.526;2023-04-01T04:38:22;95020.03;;;6.17;79.64
66479;BME280;53294;47.912;13.526;2023-04-01T04:40:49;95038.00;;;6.25;78.51
66479;BME280;53294;47.912;13.526;2023-04-01T04:43:16;95040.34;;;6.13;80.23
66479;BME280;53294;47.912;13.526;2023-04-01T04:45:44;95044.22;;;6.21;79.02
66479;BME280;53294;47.912;13.526;2023-04-01T04:48:13;95051.63;;;6.24;79.43
66479;BME280;53294;47.912;13.526;2023-04-01T04:50:42;95057.56;;;6.35;78.18
66479;BME280;53294;47.912;13.526;2023-04-01T04:53:10;95051.66;;;6.38;78.91
66479;BME280;53294;47.912;13.526;2023-04-01T04:55:38;95046.41;;;6.33;79.25
66479;BME280;53294;47.912;13.526;2023-04-01T04:58:04;95047.19;;;6.47;78.70
66479;BME280;53294;47.912;13.526;2023-04-01T05:00:31;95039.09;;;6.38;78.56
66479;BME280;53294;47.912;13.526;2023-04-01T05:02:57;95040.56;;;6.31;79.79
66479;BME280;53294;47.912;13.526;2023-04-01T05:05:24;95039.19;;;6.33;79.59
66479;BME280;53294;47.912;13.526;2023-04-01T05:07:51;95047.31;;;6.42;78.91
66479;BME280;53294;47.912;13.526;2023-04-01T05:10:18;95041.66;;;6.29;78.70
66479;BME280;53294;47.912;13.526;2023-04-01T05:12:44;95044.94;;;6.26;79.36
66479;BME280;53294;47.912;13.526;2023-04-01T05:15:11;95038.78;;;6.26;79.18
66479;BME280;53294;47.912;13.526;2023-04-01T05:17:38;95037.31;;;6.34;78.63
66479;BME280;53294;47.912;13.526;2023-04-01T05:20:05;95038.19;;;6.43;78.23
66479;BME280;53294;47.912;13.526;2023-04-01T05:22:32;95048.28;;;6.32;78.27
66479;BME280;53294;47.912;13.526;2023-04-01T05:24:59;95048.28;;;6.32;78.70
66479;BME280;53294;47.912;13.526;2023-04-01T05:27:25;95044.13;;;6.40;77.60
66479;BME280;53294;47.912;13.526;2023-04-01T05:29:52;95050.34;;;6.49;77.12
66479;BME280;53294;47.912;13.526;2023-04-01T05:32:19;95051.06;;;6.69;76.27
66479;BME280;53294;47.912;13.526;2023-04-01T05:34:45;95046.91;;;6.62;75.08
66479;BME280;53294;47.912;13.526;2023-04-01T05:37:12;95048.09;;;6.70;76.14
66479;BME280;53294;47.912;13.526;2023-04-01T05:39:39;95043.34;;;6.67;74.84
66479;BME280;53294;47.912;13.526;2023-04-01T05:42:06;95048.97;;;6.79;74.51
66479;BME280;53294;47.912;13.526;2023-04-01T05:44:34;95047.66;;;6.91;74.40
66479;BME280;53294;47.912;13.526;2023-04-01T05:47:03;95041.94;;;6.83;73.66
66479;BME280;53294;47.912;13.526;2023-04-01T05:49:30;95043.63;;;6.93;73.58
66479;BME280;53294;47.912;13.526;2023-04-01T05:51:57;95048.44;;;7.05;73.44
66479;BME280;53294;47.912;13.526;2023-04-01T05:54:23;95052.47;;;7.16;73.07
66479;BME280;53294;47.912;13.526;2023-04-01T05:56:50;95052.78;;;7.15;72.72
66479;BME280;53294;47.912;13.526;2023-04-01T05:59:17;95055.31;;;7.20;72.86
66479;BME280;53294;47.912;13.526;2023-04-01T06:01:43;95049.25;;;7.28;72.80
66479;BME280;53294;47.912;13.526;2023-04-01T06:04:15;95053.31;;;7.40;72.52
66479;BME280;53294;47.912;13.526;2023-04-01T06:06:42;95053.47;;;7.43;72.27
66479;BME280;53294;47.912;13.526;2023-04-01T06:09:19;95055.91;;;7.31;72.13
66479;BME280;53294;47.912;13.526;2023-04-01T06:17:40;95039.03;;;7.44;71.10
66479;BME280;53294;47.912;13.526;2023-04-01T06:31:08;95055.13;;;7.30;73.01
66479;BME280;53294;47.912;13.526;2023-04-01T06:55:51;95070.69;;;7.51;71.46
66479;BME280;53294;47.912;13.526;2023-04-01T06:58:22;95075.78;;;7.61;71.46
66479;BME280;53294;47.912;13.526;2023-04-01T07:00:53;95072.00;;;7.62;71.53
66479;BME280;53294;47.912;13.526;2023-04-01T07:03:30;95070.50;;;7.70;71.05
66479;BME280;53294;47.912;13.526;2023-04-01T07:06:04;95064.84;;;7.71;70.89
66479;BME280;53294;47.912;13.526;2023-04-01T07:08:35;95065.28;;;7.65;70.64
66479;BME280;53294;47.912;13.526;2023-04-01T07:11:08;95061.75;;;7.55;70.37
66479;BME280;53294;47.912;13.526;2023-04-01T07:16:12;95066.94;;;7.52;70.59
66479;BME280;53294;47.912;13.526;2023-04-01T07:21:26;95070.63;;;7.65;70.12
66479;BME280;53294;47.912;13.526;2023-04-01T07:24:03;95071.28;;;7.70;70.66
66479;BME280;53294;47.912;13.526;2023-04-01T07:26:32;95079.19;;;7.76;71.19
66479;BME280;53294;47.912;13.526;2023-04-01T07:28:59;95074.34;;;7.78;70.57
66479;BME280;53294;47.912;13.526;2023-04-01T07:42:28;95068.25;;;8.08;69.18
66479;BME280;53294;47.912;13.526;2023-04-01T07:50:34;95074.78;;;8.25;67.20
66479;BME280;53294;47.912;13.526;2023-04-01T08:01:40;95083.63;;;8.57;66.52
66479;BME280;53294;47.912;13.526;2023-04-01T08:04:19;95074.41;;;8.80;66.60
66479;BME280;53294;47.912;13.526;2023-04-01T08:09:34;95071.19;;;9.19;65.19
66479;BME280;53294;47.912;13.526;2023-04-01T08:20:32;95061.13;;;9.33;64.16
66479;BME280;53294;47.912;13.526;2023-04-01T08:23:11;95051.50;;;9.23;63.81
66479;BME280;53294;47.912;13.526;2023-04-01T08:29:04;95049.28;;;9.43;63.70
66479;BME280;53294;47.912;13.526;2023-04-01T08:34:11;95047.88;;;9.63;62.70
66479;BME280;53294;47.912;13.526;2023-04-01T08:36:46;95046.31;;;9.70;62.31
66479;BME280;53294;47.912;13.526;2023-04-01T08:39:22;95041.56;;;9.76;62.10
66479;BME280;53294;47.912;13.526;2023-04-01T08:59:16;95041.53;;;9.94;59.66
66479;BME280;53294;47.912;13.526;2023-04-01T09:05:04;95041.81;;;10.10;59.58
66479;BME280;53294;47.912;13.526;2023-04-01T09:12:58;95053.75;;;10.47;57.65
66479;BME280;53294;47.912;13.526;2023-04-01T09:15:35;95036.19;;;10.50;56.45
66479;BME280;53294;47.912;13.526;2023-04-01T09:20:47;95029.97;;;10.67;56.55
66479;BME280;53294;47.912;13.526;2023-04-01T09:45:48;95020.16;;;10.71;55.48
66479;BME280;53294;47.912;13.526;2023-04-01T09:54:01;95022.06;;;11.21;55.16
66479;BME280;53294;47.912;13.526;2023-04-01T09:56:39;95023.38;;;11.15;53.80
66479;BME280;53294;47.912;13.526;2023-04-01T10:05:22;95028.91;;;11.19;54.82
66479;BME280;53294;47.912;13.526;2023-04-01T10:11:53;95023.53;;;11.19;53.71
66479;BME280;53294;47.912;13.526;2023-04-01T10:23:20;95009.59;;;10.95;53.04
66479;BME280;53294;47.912;13.526;2023-04-01T10:26:36;95010.41;;;11.17;52.74
66479;BME280;53294;47.912;13.526;2023-04-01T11:08:47;94974.16;;;12.36;51.21
66479;BME280;53294;47.912;13.526;2023-04-01T11:23:45;94949.03;;;12.56;54.39
66479;BME280;53294;47.912;13.526;2023-04-01T11:26:32;94937.13;;;12.70;53.77
66479;BME280;53294;47.912;13.526;2023-04-01T11:31:58;94930.03;;;12.90;55.47
66479;BME280;53294;47.912;13.526;2023-04-01T11:40:35;94905.03;;;14.38;54.87
66479;BME280;53294;47.912;13.526;2023-04-01T11:43:22;94904.28;;;14.22;51.75
66479;BME280;53294;47.912;13.526;2023-04-01T11:46:10;94908.38;;;13.55;49.27
66479;BME280;53294;47.912;13.526;2023-04-01T11:49:02;94910.59;;;13.81;52.34
66479;BME280;53294;47.912;13.526;2023-04-01T12:06:00;94960.91;;;11.73;60.12
66479;BME280;53294;47.912;13.526;2023-04-01T12:11:27;94945.66;;;12.60;60.29
66479;BME280;53294;47.912;13.526;2023-04-01T12:28:25;94918.00;;;13.85;57.69
66479;BME280;53294;47.912;13.526;2023-04-01T12:44:50;94919.22;;;14.35;54.70
66479;BME280;53294;47.912;13.526;2023-04-01T12:53:25;94916.94;;;14.69;53.51
66479;BME280;53294;47.912;13.526;2023-04-01T12:56:03;94922.06;;;14.74;52.05
66479;BME280;53294;47.912;13.526;2023-04-01T12:59:24;94927.81;;;14.72;51.97
66479;BME280;53294;47.912;13.526;2023-04-01T13:01:56;94932.72;;;14.51;51.96
66479;BME280;53294;47.912;13.526;2023-04-01T13:13:08;94933.63;;;13.63;49.50
66479;BME280;53294;47.912;13.526;2023-04-01T13:15:52;94935.19;;;13.64;47.63
66479;BME280;53294;47.912;13.526;2023-04-01T13:18:30;94937.97;;;13.52;48.74
66479;BME280;53294;47.912;13.526;2023-04-01T13:21:30;94946.28;;;13.46;48.31
66479;BME280;53294;47.912;13.526;2023-04-01T13:25:10;94937.22;;;13.26;47.63
66479;BME280;53294;47.912;13.526;2023-04-01T13:27:12;94948.44;;;12.88;47.37
66479;BME280;53294;47.912;13.526;2023-04-01T13:30:16;94952.16;;;12.83;46.46
66479;BME280;53294;47.912;13.526;2023-04-01T13:32:47;94937.22;;;12.73;47.29
66479;BME280;53294;47.912;13.526;2023-04-01T13:38:17;94962.69;;;13.01;47.75
66479;BME280;53294;47.912;13.526;2023-04-01T13:52:08;94970.47;;;12.78;48.68
66479;BME280;53294;47.912;13.526;2023-04-01T14:00:48;94988.38;;;11.99;50.88
66479;BME280;53294;47.912;13.526;2023-04-01T14:06:27;95022.84;;;10.71;59.63
66479;BME280;53294;47.912;13.526;2023-04-01T14:11:52;95018.81;;;10.56;60.46
66479;BME280;53294;47.912;13.526;2023-04-01T14:14:58;95013.31;;;10.52;59.82
66479;BME280;53294;47.912;13.526;2023-04-01T14:28:56;95047.44;;;10.43;60.00
66479;BME280;53294;47.912;13.526;2023-04-01T14:34:23;95074.34;;;10.08;60.95
66479;BME280;53294;47.912;13.526;2023-04-01T14:37:19;95081.63;;;9.81;63.53
66479;BME280;53294;47.912;13.526;2023-04-01T14:53:51;95070.09;;;9.98;61.95
66479;BME280;53294;47.912;13.526;2023-04-01T14:56:43;95055.59;;;9.82;61.78
66479;BME280;53294;47.912;13.526;2023-04-01T14:59:29;95060.03;;;9.78;60.60
66479;BME280;53294;47.912;13.526;2023-04-01T15:11:24;95081.94;;;9.53;62.05
66479;BME280;53294;47.912;13.526;2023-04-01T15:27:55;95100.25;;;9.51;62.75
66479;BME280;53294;47.912;13.526;2023-04-01T15:33:19;95084.78;;;9.48;62.52
66479;BME280;53294;47.912;13.526;2023-04-01T15:47:42;95095.50;;;9.31;62.70
66479;BME280;53294;47.912;13.526;2023-04-01T16:01:42;95113.69;;;8.94;65.35
66479;BME280;53294;47.912;13.526;2023-04-01T16:15:27;95117.81;;;9.00;65.89
66479;BME280;53294;47.912;13.526;2023-04-01T16:20:46;95136.44;;;9.23;65.30
66479;BME280;53294;47.912;13.526;2023-04-01T16:26:18;95157.25;;;9.26;65.92
66479;BME280;53294;47.912;13.526;2023-04-01T16:28:54;95148.13;;;9.27;66.03
66479;BME280;53294;47.912;13.526;2023-04-01T16:31:51;95142.97;;;8.90;65.96
66479;BME280;53294;47.912;13.526;2023-04-01T16:34:28;95152.59;;;8.37;68.13
66479;BME280;53294;47.912;13.526;2023-04-01T16:37:10;95153.16;;;8.25;68.95
66479;BME280;53294;47.912;13.526;2023-04-01T16:42:40;95167.97;;;8.09;70.40
66479;BME280;53294;47.912;13.526;2023-04-01T17:02:28;95186.44;;;7.97;71.73
66479;BME280;53294;47.912;13.526;2023-04-01T17:05:09;95185.78;;;7.41;71.37
66479;BME280;53294;47.912;13.526;2023-04-01T17:08:03;95182.31;;;7.54;71.70
66479;BME280;53294;47.912;13.526;2023-04-01T17:13:29;95185.09;;;7.49;71.97
66479;BME280;53294;47.912;13.526;2023-04-01T17:16:03;95191.44;;;7.39;71.54
66479;BME280;53294;47.912;13.526;2023-04-01T17:21:11;95191.84;;;7.32;71.70
66479;BME280;53294;47.912;13.526;2023-04-01T17:23:44;95204.88;;;7.48;71.44
66479;BME280;53294;47.912;13.526;2023-04-01T17:29:19;95194.78;;;7.45;70.47
66479;BME280;53294;47.912;13.526;2023-04-01T17:32:06;95193.44;;;7.33;71.84
66479;BME280;53294;47.912;13.526;2023-04-01T17:40:57;95200.53;;;7.52;71.06
66479;BME280;53294;47.912;13.526;2023-04-01T17:46:20;95205.88;;;7.52;71.47
66479;BME280;53294;47.912;13.526;2023-04-01T17:49:17;95212.00;;;7.39;72.04
66479;BME280;53294;47.912;13.526;2023-04-01T17:52:00;95210.06;;;7.30;71.69
66479;BME280;53294;47.912;13.526;2023-04-01T17:54:50;95205.47;;;7.45;71.72
66479;BME280;53294;47.912;13.526;2023-04-01T17:57:34;95213.31;;;7.41;73.03
66479;BME280;53294;47.912;13.526;2023-04-01T18:00:24;95214.41;;;7.26;73.58
66479;BME280;53294;47.912;13.526;2023-04-01T18:08:43;95223.00;;;7.09;75.55
66479;BME280;53294;47.912;13.526;2023-04-01T18:14:01;95223.09;;;7.18;75.54
66479;BME280;53294;47.912;13.526;2023-04-01T18:26:50;95222.09;;;7.42;73.05
66479;BME280;53294;47.912;13.526;2023-04-01T18:29:52;95230.13;;;7.42;73.03
66479;BME280;53294;47.912;13.526;2023-04-01T18:38:00;95232.50;;;7.43;71.43
66479;BME280;53294;47.912;13.526;2023-04-01T18:48:42;95234.91;;;7.81;69.39
66479;BME280;53294;47.912;13.526;2023-04-01T18:54:55;95239.91;;;7.46;69.05
66479;BME280;53294;47.912;13.526;2023-04-01T18:57:11;95234.94;;;7.53;68.55
66479;BME280;53294;47.912;13.526;2023-04-01T18:59:42;95238.13;;;7.55;66.86
66479;BME280;53294;47.912;13.526;2023-04-01T19:07:41;95250.50;;;7.65;67.87
66479;BME280;53294;47.912;13.526;2023-04-01T19:13:18;95241.88;;;7.54;67.83
66479;BME280;53294;47.912;13.526;2023-04-01T19:15:57;95251.88;;;7.63;67.38
66479;BME280;53294;47.912;13.526;2023-04-01T19:27:28;95257.19;;;7.77;66.53
66479;BME280;53294;47.912;13.526;2023-04-01T19:33:20;95260.97;;;7.76;67.15
66479;BME280;53294;47.912;13.526;2023-04-01T19:35:55;95262.06;;;7.61;67.19
66479;BME280;53294;47.912;13.526;2023-04-01T19:38:31;95264.84;;;7.69;67.00
66479;BME280;53294;47.912;13.526;2023-04-01T19:52:39;95267.59;;;7.64;67.89
66479;BME280;53294;47.912;13.526;2023-04-01T19:55:41;95277.22;;;7.79;67.58
66479;BME280;53294;47.912;13.526;2023-04-01T20:00:55;95275.53;;;7.69;66.94
66479;BME280;53294;47.912;13.526;2023-04-01T20:06:27;95276.72;;;7.77;66.58
66479;BME280;53294;47.912;13.526;2023-04-01T20:14:25;95282.69;;;7.60;68.31
66479;BME280;53294;47.912;13.526;2023-04-01T20:25:06;95307.03;;;7.45;68.69
66479;BME280;53294;47.912;13.526;2023-04-01T20:27:44;95312.78;;;7.52;68.10
66479;BME280;53294;47.912;13.526;2023-04-01T20:30:24;95304.75;;;7.52;68.32
66479;BME280;53294;47.912;13.526;2023-04-01T20:41:45;95321.25;;;7.40;69.88
66479;BME280;53294;47.912;13.526;2023-04-01T20:57:20;95330.38;;;7.53;70.39
66479;BME280;53294;47.912;13.526;2023-04-01T21:03:13;95337.50;;;7.44;70.98
66479;BME280;53294;47.912;13.526;2023-04-01T21:09:00;95336.09;;;7.32;72.45
66479;BME280;53294;47.912;13.526;2023-04-01T21:14:32;95330.00;;;7.46;70.66
66479;BME280;53294;47.912;13.526;2023-04-01T21:33:45;95339.81;;;7.17;71.43
66479;BME280;53294;47.912;13.526;2023-04-01T21:36:20;95333.25;;;7.10;72.24
66479;BME280;53294;47.912;13.526;2023-04-01T21:41:39;95337.19;;;7.45;70.88
66479;BME280;53294;47.912;13.526;2023-04-01T21:47:08;95337.78;;;7.42;71.86
66479;BME280;53294;47.912;13.526;2023-04-01T21:50:33;95339.28;;;7.48;71.21
66479;BME280;53294;47.912;13.526;2023-04-01T21:52:49;95342.84;;;7.44;72.26
66479;BME280;53294;47.912;13.526;2023-04-01T22:06:36;95353.53;;;7.99;70.32
66479;BME280;53294;47.912;13.526;2023-04-01T22:09:11;95357.00;;;8.14;69.77
66479;BME280;53294;47.912;13.526;2023-04-01T22:11:44;95346.53;;;8.40;68.66
66479;BME280;53294;47.912;13.526;2023-04-01T22:14:53;95344.13;;;8.66;68.56
66479;BME280;53294;47.912;13.526;2023-04-01T22:17:31;95348.34;;;8.44;69.06
66479;BME280;53294;47.912;13.526;2023-04-01T22:23:10;95349.03;;;8.73;68.08
66479;BME280;53294;47.912;13.526;2023-04-01T22:25:51;95348.38;;;8.90;67.68
66479;BME280;53294;47.912;13.526;2023-04-01T22:31:05;95347.16;;;8.37;68.84
66479;BME280;53294;47.912;13.526;2023-04-01T22:52:08;95354.41;;;9.18;67.07
66479;BME280;53294;47.912;13.526;2023-04-01T22:57:32;95351.31;;;9.25;66.71
66479;BME280;53294;47.912;13.526;2023-04-01T23:00:14;95351.16;;;9.30;66.81
66479;BME280;53294;47.912;13.526;2023-04-01T23:02:47;95348.00;;;9.28;67.05
66479;BME280;53294;47.912;13.526;2023-04-01T23:05:18;95349.97;;;9.13;67.13
66479;BME280;53294;47.912;13.526;2023-04-01T23:08:02;95356.91;;;9.37;66.65
66479;BME280;53294;47.912;13.526;2023-04-01T23:10:47;95357.03;;;8.87;67.03
66479;BME280;53294;47.912;13.526;2023-04-01T23:13:19;95358.38;;;8.75;68.22
66479;BME280;53294;47.912;13.526;2023-04-01T23:15:51;95354.72;;;8.94;68.04
66479;BME280;53294;47.912;13.526;2023-04-01T23:34:20;95367.63;;;7.91;69.08
66479;BME280;53294;47.912;13.526;2023-04-01T23:36:59;95372.16;;;8.18;68.85
66479;BME280;53294;47.912;13.526;2023-04-01T23:39:38;95371.97;;;8.15;69.26
66479;BME280;53294;47.912;13.526;2023-04-01T23:44:51;95370.84;;;8.43;67.64
66479;BME280;53294;47.912;13.526;2023-04-01T23:47:33;95379.66;;;8.58;67.84
66479;BME280;53294;47.912;13.526;2023-04-01T23:50:14;95373.78;;;8.56;68.06
66479;BME280;53294;47.912;13.526;2023-04-01T23:52:53;95379.53;;;8.63;67.77
66479;BME280;53294;47.912;13.526;2023-04-01T23:55:30;95380.09;;;8.23;69.27
